This is the latest recevied weather packets stored in our database for station/object IU2EVW-13. If no packets are shown the sender has not sent any weather packets the latest 10 day(s).
| Time | Temp. | Humidity | Pressure | Rain* | Wind** | Luminosity | Snow |
|---|---|---|---|---|---|---|---|
| 1777907908 | 20° C | 33% | 1017.8 hPa | - | - | - | - |
| 1777906706 | 20.56° C | 35% | 1017.9 hPa | - | - | - | - |
| 1777905504 | 20.56° C | 32% | 1018.1 hPa | - | - | - | - |
| 1777904303 | 18.89° C | 43% | 1018.2 hPa | - | - | - | - |
| 1777903101 | 17.78° C | 40% | 1018.7 hPa | - | - | - | - |
| 1777901900 | 18.89° C | 39% | 1018.6 hPa | - | - | - | - |
| 1777901003 | 18.33° C | 39% | 1018.8 hPa | - | - | - | - |
| 1777899801 | 17.78° C | 46% | 1019.3 hPa | - | - | - | - |
| 1777898600 | 15.56° C | 46% | 1019.3 hPa | - | - | - | - |
| 1777897399 | 16.67° C | 39% | 1019.3 hPa | - | - | - | - |
| 1777896197 | 16.67° C | 40% | 1019.2 hPa | - | - | - | - |
| 1777894996 | 17.78° C | 41% | 1019.1 hPa | - | - | - | - |
| 1777893794 | 17.78° C | 41% | 1019.3 hPa | - | - | - | - |
| 1777892593 | 18.33° C | 35% | 1019.4 hPa | - | - | - | - |
| 1777891392 | 16.11° C | 43% | 1019.9 hPa | - | - | - | - |
| 1777890191 | 16.11° C | 43% | 1019.8 hPa | - | - | - | - |
| 1777888988 | 16.67° C | 46% | 1019.9 hPa | - | - | - | - |
| 1777887787 | 16.67° C | 44% | 1019.9 hPa | - | - | - | - |
| 1777886586 | 15.56° C | 46% | 1020.1 hPa | - | - | - | - |
| 1777885384 | 14.44° C | 50% | 1020.2 hPa | - | - | - | - |
| 1777884183 | 14.44° C | 49% | 1020.3 hPa | - | - | - | - |
| 1777882982 | 14.44° C | 53% | 1020.2 hPa | - | - | - | - |
| 1777881780 | 14.44° C | 53% | 1020.2 hPa | - | - | - | - |
| 1777880579 | 13.33° C | 56% | 1020.2 hPa | - | - | - | - |
| 1777879377 | 13.33° C | 53% | 1020.4 hPa | - | - | - | - |
* Rain since midnight (hover to see other rain measurements)
** Current wind speed in m/s (hover to see current wind gust speed)